• Join FlightAware (Why Join?)
  • Login
  • US Flag 
03:15PM EST


 

Airport Tracker/Info


-or-


 

Live Flight TrackerFlight Track Log ✈ RPA3392 ✈ 02-May-2013 ✈ KMSP - KDCA

Flight Track Log - Related Links

Times and Time Zones

All times are in EDT time to prevent confusion due to time zone crossing. See the RPA3392 flight status page for this flight to view local times or setup timezone preferences in your user account.

Time Position Orientation Groundspeed Altitude Reporting Facility
EDT Latitude Longitude Course Direction KTS MPH feet Rate Location/Type
05:59PM 44.9428 -93.2394 133° Southeast 181 208 3,400  Level Minneapolis Center
06:00PM 44.7587 -92.7724 111° Southeast  Level Estimated
06:00PM 45.0053 -93.2372 North 221 254 5,700  Level Minneapolis Center
06:01PM 44.7172 -92.6230 113° Southeast  Level Estimated
06:01PM 45.0569 -93.1872 34° Northeast 266 306 8,300  Level Minneapolis Center
06:02PM 44.6755 -92.4738 125° Southeast  Level Estimated
06:02PM 44.9969 -93.0497 122° Southeast 301 346 11,300  Level Minneapolis Center
06:03PM 44.6336 -92.3249 117° Southeast  Level Estimated
06:03PM 44.9344 -92.9222 125° Southeast 325 374 14,300  Level Minneapolis Center
06:04PM 44.5610 -92.2165 133° Southeast  Level FlightAware Approximate
06:04PM 44.8883 -92.8083 120° Southeast 332 382 16,400  Level Minneapolis Center
06:05PM 44.8456 -92.6908 117° Southeast 336 387 18,100 1,380 Climbing Minneapolis Center
06:06PM 44.8011 -92.5700 117° Southeast 342 394 19,300 1,380 Climbing Minneapolis Center
06:07PM 44.7558 -92.4461 117° Southeast 348 400 21,000 1,560 Climbing Minneapolis Center
06:08PM 44.7100 -92.3217 117° Southeast 354 407 22,600 1,320 Climbing Minneapolis Center
06:10PM 44.6642 -92.1972 117° Southeast 357 411 23,800 1,260 Climbing Minneapolis Center
06:11PM 44.6069 -92.0425 117° Southeast 365 420 25,300 1,200 Climbing Minneapolis Center
06:12PM 44.5578 -91.9106 118° Southeast 375 432 26,400 1,020 Climbing Minneapolis Center
06:13PM 44.5081 -91.7769 118° Southeast 385 443 27,500 1,080 Climbing Minneapolis Center
06:14PM 44.4564 -91.6411 118° Southeast 395 455 28,700 1,020 Climbing Minneapolis Center
06:15PM 44.3939 -91.4753 118° Southeast 401 461 29,900 960 Climbing Minneapolis Center
06:16PM 44.3414 -91.3350 118° Southeast 406 467 31,000 1,140 Climbing Minneapolis Center
06:17PM 44.2789 -91.1694 118° Southeast 410 472 32,300 1,080 Climbing Minneapolis Center
06:18PM 44.2250 -91.0292 118° Southeast 412 474 33,300 900 Climbing Minneapolis Center
06:19PM 44.1714 -90.8894 118° Southeast 411 473 34,200 780 Climbing Minneapolis Center
06:20PM 44.1178 -90.7517 118° Southeast 408 470 35,000 360 Climbing Minneapolis Center
06:21PM 44.0644 -90.6136 118° Southeast 408 470 35,000  Level Minneapolis Center
06:22PM 44.0039 -90.4581 118° Southeast 409 471 35,000  Level Minneapolis Center
06:23PM 43.9486 -90.3183 119° Southeast 413 475 35,000  Level Minneapolis Center
06:24PM 43.8919 -90.1783 119° Southeast 414 476 35,000  Level Minneapolis Center
06:25PM 43.8364 -90.0378 119° Southeast 416 479 35,000  Level Minneapolis Center
06:26PM 43.7717 -89.8733 119° Southeast 417 480 35,000  Level Minneapolis Center
06:27PM 43.7175 -89.7339 118° Southeast 414 476 35,000  Level Minneapolis Center
06:28PM 43.6669 -89.5889 116° Southeast 417 480 35,000  Level Minneapolis Center
06:29PM 43.6375 -89.4258 104° East 433 498 35,000  Level Minneapolis Center
06:30PM 43.6106 -89.2956 106° East 429 494 35,000  Level Chicago Center
06:31PM 43.5783 -89.1367 106° East 429 494 35,000  Level Chicago Center
06:32PM 43.5475 -88.9786 105° East 428 493 35,000  Level Chicago Center
06:33PM 43.5158 -88.8214 105° East 426 490 35,000  Level Chicago Center
06:34PM 43.4783 -88.6383 106° East 425 489 35,000  Level Chicago Center
06:35PM 43.4472 -88.4850 106° East 432 497 35,000  Level Chicago Center
06:36PM 43.4089 -88.3036 106° East 435 501 35,000  Level Chicago Center
06:37PM 43.3753 -88.1450 106° East 433 498 35,000  Level Chicago Center
06:38PM 43.3425 -87.9869 106° East 432 497 35,000  Level Chicago Center
06:39PM 43.3086 -87.8294 106° East 428 493 35,000  Level Chicago Center
06:40PM 43.2753 -87.6719 106° East 431 496 35,000  Level Chicago Center
06:41PM 43.2422 -87.5128 106° East 432 497 35,000  Level Chicago Center
06:43PM 43.2031 -87.3378 107° East 436 502 35,000  Level Chicago Center
06:44PM 43.1686 -87.1786 106° East 437 503 35,000  Level Chicago Center
06:45PM 43.1342 -87.0200 107° East 436 502 35,000  Level Chicago Center
06:46PM 43.1000 -86.8633 107° East 432 497 35,000  Level Chicago Center
06:47PM 43.0578 -86.6747 107° East 434 499 35,000  Level Chicago Center
06:48PM 43.0219 -86.5181 107° East 434 499 35,000  Level Chicago Center
06:49PM 42.9864 -86.3625 107° East 433 498 35,000  Level Chicago Center
06:50PM 42.9506 -86.2083 108° East 433 498 35,000  Level Chicago Center
06:51PM 42.9081 -86.0236 107° East 435 501 35,000  Level Chicago Center
06:52PM 42.8733 -85.8697 107° East 435 501 35,000  Level Chicago Center
06:53PM 42.8369 -85.7147 108° East 435 501 35,000  Level Chicago Center
06:54PM 42.8014 -85.5608 107° East 432 497 35,000  Level Chicago Center
06:55PM 42.7569 -85.4092 112° Southeast 432 497 35,000  Level Chicago Center
06:56PM 42.6947 -85.2356 116° Southeast 428 493 35,000  Level Chicago Center
06:57PM 42.6439 -85.0900 115° Southeast 429 494 35,000  Level Chicago Center
06:58PM 42.5922 -84.9436 116° Southeast 430 495 35,000  Level Chicago Center
06:59PM 42.5400 -84.7989 116° Southeast 428 493 35,000  Level Chicago Center
07:00PM 42.4886 -84.6547 116° Southeast 427 491 35,000  Level Chicago Center
07:01PM 42.4367 -84.5100 116° Southeast 427 491 35,000  Level Chicago Center
07:02PM 42.3736 -84.3469 118° Southeast 424 488 35,000  Level Cleveland Center
07:03PM 42.3219 -84.2033 116° Southeast 424 488 35,000  Level Cleveland Center
07:04PM 42.2700 -84.0600 116° Southeast 424 488 35,000  Level Cleveland Center
07:05PM 42.2158 -83.9197 117° Southeast 424 488 35,000  Level Cleveland Center
07:06PM 42.1636 -83.7769 116° Southeast 424 488 35,000  Level Cleveland Center
07:07PM 42.1150 -83.6511 117° Southeast 424 488 35,000  Level Cleveland Center
07:08PM 42.0586 -83.4947 116° Southeast 424 488 35,000  Level Cleveland Center
07:09PM 41.9950 -83.3631 123° Southeast 424 488 35,000  Level Cleveland Center
07:10PM 41.9372 -83.2489 124° Southeast 424 488 35,000  Level Cleveland Center
07:11PM 41.8692 -83.1233 126° Southeast 419 482 35,000  Level Cleveland Center
07:12PM 41.8011 -82.9981 126° Southeast 419 482 35,000  Level Cleveland Center
07:13PM 41.7158 -82.8836 135° Southeast 419 482 35,000  Level Cleveland Center
07:14PM 41.6386 -82.7781 134° Southeast 412 474 35,000  Level Cleveland Center
07:15PM 41.5553 -82.6697 136° Southeast 412 474 35,000  Level Cleveland Center
07:16PM 41.4739 -82.5592 134° Southeast 417 480 35,000  Level Cleveland Center
07:17PM 41.3903 -82.4514 136° Southeast 422 486 35,000  Level Cleveland Center
07:18PM 41.3003 -82.3328 135° Southeast 422 486 35,000  Level Cleveland Center
07:19PM 41.2164 -82.2228 135° Southeast 422 486 35,000  Level Cleveland Center
07:20PM 41.1325 -82.1186 137° Southeast 422 486 35,000  Level Cleveland Center
07:21PM 41.0506 -82.0094 135° Southeast 422 486 35,000  Level Cleveland Center
07:22PM 40.9664 -81.9031 136° Southeast 422 486 35,000  Level Cleveland Center
07:23PM 40.8842 -81.7969 136° Southeast 422 486 35,000  Level Cleveland Center
07:24PM 40.7997 -81.6883 136° Southeast 422 486 35,000  Level Cleveland Center
07:25PM 40.7172 -81.5831 136° Southeast 422 486 35,000  Level Cleveland Center
07:26PM 40.6328 -81.4750 136° Southeast 419 482 35,000  Level Cleveland Center
07:27PM 40.5544 -81.3619 132° Southeast 419 482 35,000  Level Cleveland Center
07:28PM 40.4781 -81.2328 128° Southeast 426 490 35,000  Level Cleveland Center
07:29PM 40.4017 -81.1067 128° Southeast 437 503 35,000  Level Cleveland Center
07:30PM 40.3250 -80.9725 127° Southeast 450 518 35,000  Level Cleveland Center
07:31PM 40.2461 -80.8469 129° Southeast 450 518 35,000  Level Cleveland Center
07:32PM 40.1714 -80.7189 127° Southeast 450 518 35,000  Level Cleveland Center
07:33PM 40.1006 -80.6047 129° Southeast 450 518 35,000  Level Cleveland Center
07:34PM 40.0214 -80.4772 129° Southeast 450 518 35,000 -360 Level Cleveland Center
07:36PM 39.8606 -80.2139 128° Southeast 448 516 34,100 -720 Descending Washington Center
07:37PM 39.7819 -80.0872 129° Southeast 443 510 32,900 -1,200 Descending Washington Center
07:38PM 39.7092 -79.9694 129° Southeast 451 519 31,700 -960 Descending Washington Center
07:39PM 39.6322 -79.8461 129° Southeast 451 519 31,000 -360 Descending Washington Center
07:40PM 39.5533 -79.7206 129° Southeast 451 519 31,000  Level Washington Center
07:41PM 39.4764 -79.5950 128° Southeast 446 513 31,000  Level Washington Center
07:42PM 39.4011 -79.4753 129° Southeast 441 507 31,000 -360 Level Washington Center
07:43PM 39.3297 -79.3614 129° Southeast 428 493 30,300 -1,560 Descending Washington Center
07:44PM 39.2506 -79.2206 126° Southeast 433 498 27,900 -1,800 Descending Washington Center
07:45PM 39.2342 -79.0750 98° East 403 464 26,800 -1,200 Descending Washington Center
07:46PM 39.2214 -78.9325 97° East 403 464 25,600 -1,740 Descending Washington Center
07:47PM 39.2086 -78.7925 97° East 398 458 23,400 -2,100 Descending Washington Center
07:48PM 39.1933 -78.6553 98° East 388 447 21,400 -2,040 Descending Washington Center
07:49PM 39.1800 -78.5236 97° East 388 447 19,400 -1,800 Descending Washington Center
07:50PM 39.1664 -78.3892 97° East 383 441 17,800 -1,620 Descending Washington Center
07:51PM 39.1400 -78.2678 106° East 363 418 16,200 -1,320 Descending Washington Center
07:52PM 39.1114 -78.1517 108° East 347 399 15,300 -960 Descending Washington Center
07:53PM 39.0825 -78.0383 108° East 340 391 14,300 -1,020 Descending Washington Center
07:54PM 39.0533 -77.9250 108° East 335 386 13,300 -1,260 Descending Washington Center
07:55PM 39.0242 -77.8172 109° East 321 369 11,900 -1,200 Descending Washington Center
07:56PM 39.0008 -77.7231 108° East 310 357 11,000 -720 Descending Washington Center
07:57PM 38.9733 -77.6181 109° East 290 334 10,500 -1,020 Descending Washington Center
07:58PM 38.9333 -77.5000 114° Southeast 252 290 8,800 -1,380 Descending Potomac TRACON
07:59PM 38.9167 -77.4333 108° East 230 265 7,500 -1,260 Descending Potomac TRACON
08:00PM 38.9000 -77.3500 104° East 228 262 6,300 -900 Descending Potomac TRACON
08:01PM 38.9333 -77.3000 49° Northeast 200 230 5,800 -1,200 Descending Potomac TRACON
08:02PM 38.9667 -77.2500 49° Northeast 191 220 4,000 -1,440 Descending Potomac TRACON
08:03PM 38.9833 -77.1833 72° East 188 216 3,000 -900 Descending Potomac TRACON
08:04PM 38.9500 -77.1333 131° Southeast 184 212 2,200 -840 Descending Potomac TRACON